Villas de Candelero, Puerto Rico
Current Conditions -  °F | °C
As of 11:53 AM on Friday 28 Nov 2014 (Local Time) from TJNR Reporting Station
Clear Clear  
Wind Chill: 28°   Ceiling: Unl
Heat Index: 31°   Visibility: 10mi
Dew Point: 22°   Wind: 7mph
Humidity: 67%   Direction: 60°ENE
Pressure: 29.99"   Gusts: NA
Location:  18.1494°N, 65.8294°W
Report Text: TJNR 281553Z AUTO 06006KT 10SM CLR 28/22 A2999 RMK AO2 SLP157 T02830217 $
Loading
Personal Weather Stations






























Interactive Weather Map New forecast layout! Learn more

10-Day Weather Forecast

Advertisements
Track Severe Weather on mobile